createdAt,value
2017-08-02T00:00:43.927Z,13.63
2017-08-02T00:03:12.350Z,14.60
2017-08-02T00:05:41.497Z,13.50
2017-08-02T00:08:09.922Z,12.03
2017-08-02T00:10:39.136Z,14.20
2017-08-02T00:13:08.335Z,15.80
2017-08-02T00:15:37.558Z,14.53
2017-08-02T00:18:06.002Z,14.97
2017-08-02T00:20:34.407Z,16.03
2017-08-02T00:23:02.838Z,15.80
2017-08-02T00:25:31.299Z,15.30
2017-08-02T00:27:59.754Z,14.73
2017-08-02T00:30:28.214Z,13.90
2017-08-02T00:32:57.347Z,14.27
2017-08-02T00:35:25.774Z,13.60
2017-08-02T00:37:54.230Z,12.70
2017-08-02T00:40:22.658Z,13.60
2017-08-02T00:42:51.871Z,14.20
2017-08-02T00:45:20.303Z,13.50
2017-08-02T00:47:48.750Z,13.20
2017-08-02T00:50:18.622Z,12.93
2017-08-02T00:52:47.830Z,12.30
2017-08-02T00:55:17.115Z,12.77
2017-08-02T00:57:45.546Z,11.57
2017-08-02T01:00:13.650Z,13.07
2017-08-02T01:02:42.102Z,12.97
2017-08-02T01:05:10.522Z,12.80
2017-08-02T01:07:38.977Z,11.90
2017-08-02T01:10:07.400Z,12.73
2017-08-02T01:12:35.814Z,13.47
2017-08-02T01:15:04.259Z,13.10
2017-08-02T01:17:32.686Z,12.47
2017-08-02T01:20:01.118Z,12.30
2017-08-02T01:22:29.583Z,13.40
2017-08-02T01:24:58.026Z,14.77
2017-08-02T01:27:26.462Z,13.80
2017-08-02T01:29:54.888Z,13.20
2017-08-02T01:32:23.335Z,13.43
2017-08-02T01:34:51.775Z,13.00
2017-08-02T01:37:20.219Z,14.17
2017-08-02T01:39:49.542Z,13.93
2017-08-02T01:42:18.170Z,11.33
2017-08-02T01:44:46.619Z,12.00
2017-08-02T01:47:15.043Z,12.00
2017-08-02T01:49:43.134Z,14.33
2017-08-02T01:52:12.556Z,14.30
2017-08-02T01:54:40.997Z,14.10
2017-08-02T01:57:09.089Z,14.20
2017-08-02T01:59:38.287Z,15.57
2017-08-02T02:02:06.720Z,13.53
2017-08-02T02:04:35.166Z,14.20
2017-08-02T02:07:03.599Z,16.13
2017-08-02T02:09:32.088Z,15.53
2017-08-02T02:12:00.503Z,15.17
2017-08-02T02:14:29.696Z,16.10
2017-08-02T02:16:58.943Z,16.27
2017-08-02T02:19:27.370Z,16.20
2017-08-02T02:21:56.589Z,14.20
2017-08-02T02:24:25.771Z,13.90
2017-08-02T02:26:54.963Z,13.40
2017-08-02T02:29:23.406Z,14.77
2017-08-02T02:31:51.838Z,16.10
2017-08-02T02:34:21.118Z,15.60
2017-08-02T02:36:49.611Z,14.50
2017-08-02T02:39:18.252Z,14.83
2017-08-02T02:41:47.372Z,15.23
2017-08-02T02:44:15.791Z,15.83
2017-08-02T02:46:45.011Z,15.23
2017-08-02T02:49:13.446Z,15.20
2017-08-02T02:51:41.990Z,15.37
2017-08-02T02:54:11.942Z,15.70
2017-08-02T02:56:40.510Z,14.80
2017-08-02T02:59:08.958Z,14.80
2017-08-02T03:01:37.458Z,15.00
2017-08-02T03:04:05.906Z,15.70
2017-08-02T03:06:35.106Z,16.33
2017-08-02T03:09:03.422Z,16.60
2017-08-02T03:11:31.867Z,13.37
2017-08-02T03:14:01.063Z,14.20
2017-08-02T03:16:30.348Z,13.17
2017-08-02T03:18:58.770Z,12.97
2017-08-02T03:21:27.216Z,14.30
2017-08-02T03:23:56.414Z,16.10
2017-08-02T03:26:25.542Z,14.77
2017-08-02T03:28:53.998Z,13.87
2017-08-02T03:31:23.204Z,14.53
2017-08-02T03:33:52.402Z,15.17
2017-08-02T03:36:21.659Z,15.03
2017-08-02T03:38:50.078Z,15.07
2017-08-02T03:41:19.272Z,14.77
2017-08-02T03:43:48.009Z,14.00
2017-08-02T03:46:16.423Z,16.50
2017-08-02T03:48:44.943Z,16.10
2017-08-02T03:51:13.386Z,16.30
2017-08-02T03:53:42.506Z,15.80
2017-08-02T03:56:10.948Z,16.07
2017-08-02T03:58:39.370Z,15.93
2017-08-02T04:01:08.587Z,16.50
2017-08-02T04:03:37.018Z,16.07
2017-08-02T04:06:05.505Z,15.23
2017-08-02T04:08:33.947Z,15.77
2017-08-02T04:11:02.545Z,14.97
2017-08-02T04:13:30.985Z,17.00
2017-08-02T04:16:00.267Z,14.87
2017-08-02T04:18:28.707Z,16.07
2017-08-02T04:20:57.138Z,15.00
2017-08-02T04:23:25.570Z,16.57
2017-08-02T04:25:54.011Z,15.57
2017-08-02T04:28:23.222Z,15.37
2017-08-02T04:30:51.525Z,15.87
2017-08-02T04:33:19.998Z,16.23
2017-08-02T04:35:48.440Z,15.23
2017-08-02T04:38:17.618Z,15.40
2017-08-02T04:40:46.036Z,15.10
2017-08-02T04:43:15.246Z,14.30
2017-08-02T04:45:44.374Z,12.87
2017-08-02T04:48:12.828Z,14.10
2017-08-02T04:50:41.255Z,14.90
2017-08-02T04:53:09.692Z,14.57
2017-08-02T04:55:38.114Z,14.37
2017-08-02T04:58:06.543Z,13.80
2017-08-02T05:00:35.769Z,15.77
2017-08-02T05:03:03.863Z,14.73
2017-08-02T05:05:32.305Z,14.37
2017-08-02T05:08:00.738Z,12.93
2017-08-02T05:10:29.175Z,13.10
2017-08-02T05:12:57.617Z,12.90
2017-08-02T05:15:26.123Z,13.60
2017-08-02T05:17:55.376Z,11.77
2017-08-02T05:20:23.800Z,13.30
2017-08-02T05:22:52.994Z,12.97
2017-08-02T05:25:22.111Z,12.20
2017-08-02T05:27:50.535Z,12.40
2017-08-02T05:30:19.278Z,12.90
2017-08-02T05:32:47.699Z,12.10
2017-08-02T05:35:16.122Z,14.00
2017-08-02T05:37:45.333Z,13.90
2017-08-02T05:40:14.528Z,13.97
2017-08-02T05:42:43.738Z,12.33
2017-08-02T05:45:12.173Z,11.83
2017-08-02T05:47:40.832Z,9.33
2017-08-02T05:50:09.267Z,8.60
2017-08-02T05:52:38.456Z,10.50
2017-08-02T05:55:06.904Z,8.07
2017-08-02T05:57:36.095Z,10.47
2017-08-02T06:00:04.183Z,7.93
2017-08-02T06:02:32.598Z,8.40
2017-08-02T06:05:01.792Z,8.20
2017-08-02T06:07:30.237Z,7.17
2017-08-02T06:09:58.679Z,8.13
2017-08-02T06:12:27.871Z,6.70
2017-08-02T06:14:57.051Z,8.50
2017-08-02T06:17:25.314Z,9.73
2017-08-02T06:19:53.742Z,6.40
2017-08-02T06:22:22.067Z,7.00
2017-08-02T06:24:50.503Z,6.47
2017-08-02T06:27:18.923Z,7.87
2017-08-02T06:29:47.362Z,7.43
2017-08-02T06:32:15.794Z,7.87
2017-08-02T06:34:44.234Z,7.47
2017-08-02T06:37:12.665Z,7.30
2017-08-02T06:39:41.078Z,5.90
2017-08-02T06:42:10.108Z,5.93
2017-08-02T06:44:38.531Z,5.80
2017-08-02T06:47:06.951Z,5.63
2017-08-02T06:49:35.390Z,6.30
2017-08-02T06:52:03.812Z,5.70
2017-08-02T06:54:32.243Z,5.57
2017-08-02T06:57:00.684Z,5.70
2017-08-02T06:59:29.123Z,6.53
2017-08-02T07:01:57.559Z,6.00
2017-08-02T07:04:26.215Z,5.20
2017-08-02T07:06:55.390Z,5.50
2017-08-02T07:09:24.599Z,6.17
2017-08-02T07:11:53.818Z,5.53
2017-08-02T07:14:23.894Z,5.90
2017-08-02T07:16:52.312Z,5.90
2017-08-02T07:19:21.518Z,5.53
2017-08-02T07:21:49.959Z,5.73
2017-08-02T07:24:18.390Z,6.33
2017-08-02T07:26:46.902Z,5.20
2017-08-02T07:29:15.338Z,5.60
2017-08-02T07:31:44.463Z,6.23
2017-08-02T07:34:12.899Z,6.37
2017-08-02T07:36:42.113Z,5.87
2017-08-02T07:39:10.702Z,5.80
2017-08-02T07:41:39.184Z,5.27
2017-08-02T07:44:08.374Z,5.60
2017-08-02T07:46:37.562Z,4.50
2017-08-02T07:49:06.765Z,5.20
2017-08-02T07:51:35.955Z,5.10
2017-08-02T07:54:04.493Z,5.50
2017-08-02T07:56:32.899Z,6.00
2017-08-02T07:59:01.426Z,5.10
2017-08-02T08:01:29.870Z,5.50
2017-08-02T08:03:58.298Z,4.67
2017-08-02T08:06:26.730Z,5.40
2017-08-02T08:08:55.159Z,5.33
2017-08-02T08:11:23.594Z,5.23
2017-08-02T08:13:52.046Z,5.67
2017-08-02T08:16:20.563Z,5.00
2017-08-02T08:18:48.990Z,5.80
2017-08-02T08:21:17.439Z,5.57
2017-08-02T08:23:46.762Z,4.70
2017-08-02T08:26:15.199Z,5.20
2017-08-02T08:28:43.619Z,5.40
2017-08-02T08:31:12.816Z,4.70
2017-08-02T08:33:42.017Z,5.30
2017-08-02T08:36:11.191Z,5.37
2017-08-02T08:38:39.637Z,5.17
2017-08-02T08:41:08.071Z,5.77
2017-08-02T08:43:37.250Z,5.60
2017-08-02T08:46:05.700Z,5.40
2017-08-02T08:48:34.119Z,5.30
2017-08-02T08:51:02.538Z,5.00
2017-08-02T08:53:31.678Z,5.60
2017-08-02T08:56:00.100Z,5.50
2017-08-02T08:58:29.297Z,5.90
2017-08-02T09:00:58.489Z,5.97
2017-08-02T09:03:27.691Z,5.43
2017-08-02T09:05:56.888Z,5.67
2017-08-02T09:08:26.077Z,6.43
2017-08-02T09:10:54.603Z,5.80
2017-08-02T09:13:22.830Z,5.43
2017-08-02T09:15:51.264Z,5.90
2017-08-02T09:18:19.690Z,5.73
2017-08-02T09:20:48.129Z,5.80
2017-08-02T09:23:16.547Z,6.17
2017-08-02T09:25:44.966Z,6.30
2017-08-02T09:28:14.171Z,5.40
2017-08-02T09:30:42.591Z,5.70
2017-08-02T09:33:11.032Z,6.07
2017-08-02T09:35:39.462Z,5.73
2017-08-02T09:38:08.035Z,6.20
2017-08-02T09:40:37.130Z,6.03
2017-08-02T09:43:05.357Z,5.83
2017-08-02T09:45:34.578Z,6.30
2017-08-02T09:48:02.994Z,5.83
2017-08-02T09:50:32.127Z,5.80
2017-08-02T09:53:01.435Z,5.77
2017-08-02T09:55:30.626Z,6.40
2017-08-02T09:57:59.070Z,6.20
2017-08-02T10:00:27.491Z,6.40
2017-08-02T10:02:56.707Z,6.20
2017-08-02T10:05:25.887Z,6.80
2017-08-02T10:07:55.102Z,5.90
2017-08-02T10:10:24.272Z,5.80
2017-08-02T10:12:52.699Z,6.47
2017-08-02T10:15:21.130Z,6.30
2017-08-02T10:17:49.359Z,6.00
2017-08-02T10:20:17.785Z,5.40
2017-08-02T10:22:46.222Z,6.13
2017-08-02T10:25:14.638Z,6.23
2017-08-02T10:27:43.081Z,5.70
2017-08-02T10:30:11.529Z,5.90
2017-08-02T10:32:39.971Z,5.70
2017-08-02T10:35:08.391Z,6.67
2017-08-02T10:37:37.605Z,6.70
2017-08-02T10:40:06.811Z,6.10
2017-08-02T10:42:35.999Z,6.03
2017-08-02T10:45:05.219Z,6.37
2017-08-02T10:47:33.630Z,6.07
2017-08-02T10:50:02.742Z,6.00
2017-08-02T10:52:31.193Z,6.97
2017-08-02T10:54:59.698Z,6.47
2017-08-02T10:57:28.127Z,6.23
2017-08-02T10:59:57.338Z,5.60
2017-08-02T11:02:27.308Z,6.20
2017-08-02T11:04:56.514Z,6.13
2017-08-02T11:07:24.606Z,7.20
2017-08-02T11:09:53.801Z,6.67
2017-08-02T11:12:22.244Z,6.30
2017-08-02T11:14:50.720Z,6.97
2017-08-02T11:17:19.144Z,6.80
2017-08-02T11:19:47.577Z,6.33
2017-08-02T11:22:15.987Z,6.47
2017-08-02T11:24:44.430Z,6.43
2017-08-02T11:27:12.994Z,7.40
2017-08-02T11:29:41.415Z,6.97
2017-08-02T11:32:09.932Z,7.20
2017-08-02T11:34:38.346Z,7.23
2017-08-02T11:37:06.880Z,6.63
2017-08-02T11:39:35.301Z,6.70
2017-08-02T11:42:04.499Z,7.10
2017-08-02T11:44:33.683Z,6.67
2017-08-02T11:47:02.925Z,6.63
2017-08-02T11:49:32.799Z,6.63
2017-08-02T11:52:01.988Z,6.60
2017-08-02T11:54:30.411Z,6.80
2017-08-02T11:56:58.902Z,6.87
2017-08-02T11:59:27.351Z,7.90
2017-08-02T12:01:56.539Z,7.27
2017-08-02T12:04:25.734Z,8.10
2017-08-02T12:06:54.860Z,7.17
2017-08-02T12:09:24.812Z,7.80
2017-08-02T12:11:53.302Z,7.30
2017-08-02T12:14:21.722Z,7.60
2017-08-02T12:16:50.914Z,7.93
2017-08-02T12:19:19.346Z,7.63
2017-08-02T12:21:47.790Z,7.90
2017-08-02T12:24:16.995Z,8.00
2017-08-02T12:26:46.095Z,8.10
2017-08-02T12:29:15.287Z,8.23
2017-08-02T12:31:44.423Z,8.17
2017-08-02T12:34:12.870Z,8.20
2017-08-02T12:36:41.332Z,8.67
2017-08-02T12:39:09.783Z,7.90
2017-08-02T12:41:38.215Z,8.33
2017-08-02T12:44:06.660Z,8.07
2017-08-02T12:46:35.099Z,7.53
2017-08-02T12:49:03.520Z,7.63
2017-08-02T12:51:31.938Z,7.80
2017-08-02T12:54:01.256Z,7.70
2017-08-02T12:56:29.683Z,8.13
2017-08-02T12:58:58.134Z,7.77
2017-08-02T13:01:26.585Z,8.07
2017-08-02T13:03:55.885Z,7.83
2017-08-02T13:06:25.091Z,8.40
2017-08-02T13:08:54.796Z,8.50
2017-08-02T13:11:23.283Z,8.90
2017-08-02T13:13:51.700Z,8.10
2017-08-02T13:16:20.139Z,8.90
2017-08-02T13:18:48.211Z,8.70
2017-08-02T13:21:16.649Z,8.97
2017-08-02T13:23:45.066Z,7.97
2017-08-02T13:26:13.515Z,9.10
2017-08-02T13:28:41.935Z,8.60
2017-08-02T13:31:10.371Z,8.60
2017-08-02T13:33:38.886Z,8.40
2017-08-02T13:36:07.360Z,8.70
2017-08-02T13:38:35.803Z,7.90
2017-08-02T13:41:04.240Z,8.50
2017-08-02T13:43:32.694Z,8.50
2017-08-02T13:46:01.133Z,7.73
2017-08-02T13:48:29.577Z,8.20
2017-08-02T13:50:58.031Z,8.23
2017-08-02T13:53:26.095Z,8.47
2017-08-02T13:55:54.551Z,7.60
2017-08-02T13:58:23.747Z,8.97
2017-08-02T14:00:52.187Z,8.13
2017-08-02T14:03:20.692Z,8.73
2017-08-02T14:05:49.794Z,8.50
2017-08-02T14:08:18.218Z,7.83
2017-08-02T14:10:46.680Z,8.40
2017-08-02T14:13:15.162Z,8.60
2017-08-02T14:15:43.595Z,8.47
2017-08-02T14:18:12.015Z,8.50
2017-08-02T14:20:40.452Z,8.50
2017-08-02T14:23:08.874Z,8.80
2017-08-02T14:25:37.322Z,8.00
2017-08-02T14:28:05.735Z,7.83
2017-08-02T14:30:34.862Z,7.80
2017-08-02T14:33:03.308Z,8.20
2017-08-02T14:35:31.738Z,9.30
2017-08-02T14:38:00.220Z,8.20
2017-08-02T14:40:28.643Z,7.43
2017-08-02T14:42:57.066Z,8.33
2017-08-02T14:45:25.499Z,8.13
2017-08-02T14:47:54.705Z,7.40
2017-08-02T14:50:23.828Z,7.93
2017-08-02T14:52:52.936Z,6.70
2017-08-02T14:55:21.358Z,7.80
2017-08-02T14:57:49.790Z,7.97
2017-08-02T15:00:18.908Z,7.30
2017-08-02T15:02:47.483Z,7.37
2017-08-02T15:05:15.903Z,7.23
2017-08-02T15:07:44.337Z,7.00
2017-08-02T15:10:13.467Z,7.47
2017-08-02T15:12:41.906Z,8.30
2017-08-02T15:15:11.043Z,7.53
2017-08-02T15:17:39.468Z,7.47
2017-08-02T15:20:07.911Z,7.80
2017-08-02T15:22:36.314Z,7.17
2017-08-02T15:25:04.826Z,6.40
2017-08-02T15:27:33.253Z,6.50
2017-08-02T15:30:01.687Z,7.57
2017-08-02T15:32:30.139Z,8.30
2017-08-02T15:34:58.599Z,7.60
2017-08-02T15:37:27.018Z,7.23
2017-08-02T15:39:55.481Z,6.70
2017-08-02T15:42:24.609Z,6.90
2017-08-02T15:44:53.043Z,7.50
2017-08-02T15:47:21.475Z,8.00
2017-08-02T15:49:49.933Z,7.20
2017-08-02T15:52:18.358Z,7.33
2017-08-02T15:54:46.856Z,8.57
2017-08-02T15:57:15.298Z,7.60
2017-08-02T15:59:43.747Z,7.40
2017-08-02T16:02:12.210Z,8.80
2017-08-02T16:04:40.639Z,8.47
2017-08-02T16:07:09.080Z,8.53
2017-08-02T16:09:37.505Z,8.10
2017-08-02T16:12:05.937Z,7.70
2017-08-02T16:14:35.075Z,8.90
2017-08-02T16:17:03.523Z,8.93
2017-08-02T16:19:31.961Z,8.37
2017-08-02T16:22:01.171Z,8.17
2017-08-02T16:24:29.583Z,8.47
2017-08-02T16:26:58.033Z,8.67
2017-08-02T16:29:26.453Z,7.80
2017-08-02T16:31:55.586Z,8.60
2017-08-02T16:34:24.006Z,9.10
2017-08-02T16:36:52.433Z,8.00
2017-08-02T16:39:20.871Z,8.33
2017-08-02T16:41:49.305Z,8.37
2017-08-02T16:44:17.759Z,8.10
2017-08-02T16:46:46.191Z,8.77
2017-08-02T16:49:14.640Z,8.53
2017-08-02T16:51:43.067Z,7.80
2017-08-02T16:54:11.554Z,8.23
2017-08-02T16:56:40.017Z,8.83
2017-08-02T16:59:08.451Z,8.63
2017-08-02T17:01:37.582Z,7.70
2017-08-02T17:04:06.031Z,8.00
2017-08-02T17:06:34.465Z,8.10
2017-08-02T17:09:02.907Z,8.80
2017-08-02T17:11:31.356Z,8.67
2017-08-02T17:13:59.804Z,8.10
2017-08-02T17:16:28.235Z,8.87
2017-08-02T17:18:56.675Z,8.47
2017-08-02T17:21:25.122Z,8.00
2017-08-02T17:23:53.570Z,8.63
2017-08-02T17:26:22.699Z,8.67
2017-08-02T17:28:51.135Z,8.30
2017-08-02T17:31:19.551Z,8.90
2017-08-02T17:33:48.054Z,8.70
2017-08-02T17:36:16.463Z,8.70
2017-08-02T17:38:44.930Z,9.37
2017-08-02T17:41:13.370Z,8.97
2017-08-02T17:43:41.828Z,9.80
2017-08-02T17:46:10.259Z,8.77
2017-08-02T17:48:38.747Z,8.87
2017-08-02T17:51:07.186Z,9.77
2017-08-02T17:53:35.621Z,8.30
2017-08-02T17:56:04.071Z,8.87
2017-08-02T17:58:32.514Z,8.73
2017-08-02T18:01:00.995Z,9.30
2017-08-02T18:03:29.444Z,8.43
2017-08-02T18:05:57.898Z,9.30
2017-08-02T18:08:26.314Z,9.00
2017-08-02T18:10:54.767Z,9.73
2017-08-02T18:13:23.367Z,9.90
2017-08-02T18:15:51.799Z,9.90
2017-08-02T18:18:20.256Z,10.47
2017-08-02T18:20:48.707Z,11.90
2017-08-02T18:23:17.155Z,10.53
2017-08-02T18:25:45.596Z,10.23
2017-08-02T18:28:14.023Z,10.33
2017-08-02T18:30:42.463Z,10.57
2017-08-02T18:33:10.911Z,10.33
2017-08-02T18:35:39.371Z,10.00
2017-08-02T18:38:07.131Z,9.50
2017-08-02T18:40:35.623Z,9.97
2017-08-02T18:43:04.822Z,9.67
2017-08-02T18:45:33.283Z,9.63
2017-08-02T18:48:01.719Z,9.60
2017-08-02T18:50:30.179Z,9.47
2017-08-02T18:52:59.311Z,11.00
2017-08-02T18:55:27.799Z,10.20
2017-08-02T18:57:56.231Z,10.40
2017-08-02T19:00:24.696Z,10.40
2017-08-02T19:02:53.223Z,10.03
2017-08-02T19:05:21.830Z,9.60
2017-08-02T19:07:50.291Z,10.60
2017-08-02T19:10:18.867Z,10.40
2017-08-02T19:12:48.080Z,10.80
2017-08-02T19:15:16.917Z,10.23
2017-08-02T19:17:46.223Z,12.43
2017-08-02T19:20:15.444Z,11.67
2017-08-02T19:22:44.294Z,9.67
2017-08-02T19:25:13.570Z,11.97
2017-08-02T19:27:42.492Z,9.90
2017-08-02T19:30:11.027Z,11.27
2017-08-02T19:32:40.264Z,11.50
2017-08-02T19:35:09.203Z,12.40
2017-08-02T19:37:37.777Z,11.70
2017-08-02T19:40:06.328Z,11.33
2017-08-02T19:42:35.016Z,12.20
2017-08-02T19:45:03.632Z,11.90
2017-08-02T19:47:32.213Z,12.47
2017-08-02T19:50:01.240Z,13.07
2017-08-02T19:52:29.850Z,13.33
2017-08-02T19:54:58.791Z,11.53
2017-08-02T19:57:27.270Z,13.40
2017-08-02T19:59:55.807Z,12.17
2017-08-02T20:02:24.261Z,12.97
2017-08-02T20:04:52.867Z,13.80
2017-08-02T20:07:21.346Z,12.73
2017-08-02T20:09:49.786Z,12.33
2017-08-02T20:12:18.653Z,12.97
2017-08-02T20:14:47.537Z,12.97
2017-08-02T20:17:16.035Z,13.10
2017-08-02T20:19:44.304Z,14.10
2017-08-02T20:22:13.529Z,13.13
2017-08-02T20:24:41.991Z,13.97
2017-08-02T20:27:11.187Z,13.50
2017-08-02T20:29:40.432Z,13.97
2017-08-02T20:32:08.999Z,13.90
2017-08-02T20:34:38.203Z,15.30
2017-08-02T20:37:07.418Z,15.40
2017-08-02T20:39:35.872Z,16.73
2017-08-02T20:42:05.075Z,15.10
2017-08-02T20:44:34.320Z,16.17
2017-08-02T20:47:02.901Z,18.30
2017-08-02T20:49:31.355Z,17.80
2017-08-02T20:52:00.550Z,17.07
2017-08-02T20:54:29.761Z,17.30
2017-08-02T20:56:58.245Z,17.70
2017-08-02T20:59:26.679Z,17.13
2017-08-02T21:01:55.137Z,17.40
2017-08-02T21:04:23.587Z,16.07
2017-08-02T21:06:52.902Z,16.73
2017-08-02T21:09:21.335Z,17.50
2017-08-02T21:11:49.980Z,17.90
2017-08-02T21:14:19.084Z,17.27
2017-08-02T21:16:48.633Z,18.13
2017-08-02T21:19:17.409Z,17.00
2017-08-02T21:21:45.861Z,16.80
2017-08-02T21:24:14.309Z,19.33
2017-08-02T21:26:43.637Z,17.57
2017-08-02T21:29:13.523Z,17.17
2017-08-02T21:31:42.738Z,17.57
2017-08-02T21:34:11.188Z,17.03
2017-08-02T21:36:40.410Z,17.90
2017-08-02T21:39:08.846Z,17.50
2017-08-02T21:41:37.287Z,18.53
2017-08-02T21:44:05.720Z,17.20
2017-08-02T21:46:34.202Z,16.73
2017-08-02T21:49:02.655Z,17.30
2017-08-02T21:51:31.082Z,18.00
2017-08-02T21:54:00.306Z,17.60
2017-08-02T21:56:28.846Z,17.47
2017-08-02T21:58:57.277Z,17.10
2017-08-02T22:01:34.188Z,16.90
2017-08-02T22:04:03.306Z,18.40
2017-08-02T22:06:31.805Z,16.33
2017-08-02T22:09:01.120Z,18.37
2017-08-02T22:11:30.313Z,16.60
2017-08-02T22:13:59.550Z,17.83
2017-08-02T22:16:27.998Z,17.20
2017-08-02T22:18:57.186Z,17.60
2017-08-02T22:21:26.614Z,17.40
2017-08-02T22:23:55.045Z,17.57
2017-08-02T22:26:23.659Z,16.93
2017-08-02T22:28:52.862Z,18.03
2017-08-02T22:31:22.116Z,19.80
2017-08-02T22:33:50.563Z,18.77
2017-08-02T22:36:19.008Z,18.40
2017-08-02T22:38:47.483Z,17.77
2017-08-02T22:41:16.114Z,18.30
2017-08-02T22:43:44.564Z,16.57
2017-08-02T22:46:13.029Z,18.60
2017-08-02T22:48:41.482Z,16.93
2017-08-02T22:51:10.031Z,17.57
2017-08-02T22:53:39.220Z,16.63
2017-08-02T22:56:08.554Z,17.90
2017-08-02T22:58:38.460Z,17.87
2017-08-02T23:01:06.686Z,19.77
2017-08-02T23:03:35.139Z,17.87
2017-08-02T23:06:02.893Z,17.97
2017-08-02T23:08:31.346Z,17.47
2017-08-02T23:11:00.628Z,17.10
2017-08-02T23:13:29.073Z,17.70
2017-08-02T23:15:57.582Z,18.53
2017-08-02T23:18:26.079Z,19.37
2017-08-02T23:20:54.556Z,18.60
2017-08-02T23:23:22.988Z,18.70
2017-08-02T23:25:51.419Z,18.50
2017-08-02T23:28:20.678Z,19.10
2017-08-02T23:30:49.127Z,17.80
2017-08-02T23:33:18.436Z,19.30
2017-08-02T23:35:46.890Z,18.07
2017-08-02T23:38:15.335Z,18.57
2017-08-02T23:40:43.767Z,18.13
2017-08-02T23:43:12.958Z,19.60
2017-08-02T23:45:42.207Z,18.17
2017-08-02T23:48:10.662Z,18.73
2017-08-02T23:50:39.115Z,20.80
2017-08-02T23:53:07.586Z,20.70
2017-08-02T23:55:36.099Z,21.20
2017-08-02T23:58:05.318Z,20.40
